sensor_id;sensor_type;location;lat;lon;timestamp;P1;durP1;ratioP1;P2;durP2;ratioP2
57111;SDS011;42992;49.084;19.300;2023-07-24T00:00:31;8.95;;;4.68;;
57111;SDS011;42992;49.084;19.300;2023-07-24T00:02:58;9.25;;;4.97;;
57111;SDS011;42992;49.084;19.300;2023-07-24T00:05:24;10.73;;;4.40;;
57111;SDS011;42992;49.084;19.300;2023-07-24T00:07:49;9.27;;;4.45;;
57111;SDS011;42992;49.084;19.300;2023-07-24T00:10:14;7.18;;;4.32;;
57111;SDS011;42992;49.084;19.300;2023-07-24T00:12:39;7.30;;;4.03;;
57111;SDS011;42992;49.084;19.300;2023-07-24T00:15:05;8.82;;;4.60;;
57111;SDS011;42992;49.084;19.300;2023-07-24T00:17:30;7.70;;;4.30;;
57111;SDS011;42992;49.084;19.300;2023-07-24T00:19:55;9.73;;;4.70;;
57111;SDS011;42992;49.084;19.300;2023-07-24T00:22:21;8.43;;;4.50;;
57111;SDS011;42992;49.084;19.300;2023-07-24T00:24:46;13.73;;;4.60;;
57111;SDS011;42992;49.084;19.300;2023-07-24T00:27:11;8.00;;;4.63;;
57111;SDS011;42992;49.084;19.300;2023-07-24T00:29:36;8.57;;;4.65;;
57111;SDS011;42992;49.084;19.300;2023-07-24T00:32:02;8.65;;;4.05;;
57111;SDS011;42992;49.084;19.300;2023-07-24T00:34:27;8.38;;;4.63;;
57111;SDS011;42992;49.084;19.300;2023-07-24T00:36:52;10.90;;;5.00;;
57111;SDS011;42992;49.084;19.300;2023-07-24T00:39:27;10.43;;;4.80;;
57111;SDS011;42992;49.084;19.300;2023-07-24T00:41:54;8.30;;;4.85;;
57111;SDS011;42992;49.084;19.300;2023-07-24T00:44:19;7.18;;;4.55;;
57111;SDS011;42992;49.084;19.300;2023-07-24T00:46:45;7.07;;;4.35;;
57111;SDS011;42992;49.084;19.300;2023-07-24T00:49:10;8.52;;;4.57;;
57111;SDS011;42992;49.084;19.300;2023-07-24T00:51:35;14.38;;;4.50;;
57111;SDS011;42992;49.084;19.300;2023-07-24T00:54:01;9.57;;;4.55;;
57111;SDS011;42992;49.084;19.300;2023-07-24T00:56:27;8.65;;;4.65;;
57111;SDS011;42992;49.084;19.300;2023-07-24T00:58:52;11.32;;;4.80;;
57111;SDS011;42992;49.084;19.300;2023-07-24T01:01:24;10.07;;;4.57;;
57111;SDS011;42992;49.084;19.300;2023-07-24T01:03:49;8.88;;;4.32;;
57111;SDS011;42992;49.084;19.300;2023-07-24T01:06:15;13.38;;;4.80;;
57111;SDS011;42992;49.084;19.300;2023-07-24T01:08:40;9.07;;;4.30;;
57111;SDS011;42992;49.084;19.300;2023-07-24T01:11:09;10.15;;;4.70;;
57111;SDS011;42992;49.084;19.300;2023-07-24T01:13:36;9.82;;;4.70;;
57111;SDS011;42992;49.084;19.300;2023-07-24T01:16:14;11.45;;;4.80;;
57111;SDS011;42992;49.084;19.300;2023-07-24T01:18:42;9.43;;;5.00;;
57111;SDS011;42992;49.084;19.300;2023-07-24T01:21:08;11.05;;;5.20;;
57111;SDS011;42992;49.084;19.300;2023-07-24T01:26:00;6.20;;;4.28;;
57111;SDS011;42992;49.084;19.300;2023-07-24T01:28:26;6.97;;;4.47;;
57111;SDS011;42992;49.084;19.300;2023-07-24T01:30:51;9.63;;;4.53;;
57111;SDS011;42992;49.084;19.300;2023-07-24T01:33:17;9.60;;;4.95;;
57111;SDS011;42992;49.084;19.300;2023-07-24T01:35:42;9.52;;;4.38;;
57111;SDS011;42992;49.084;19.300;2023-07-24T01:38:09;13.80;;;5.10;;
57111;SDS011;42992;49.084;19.300;2023-07-24T01:40:34;7.10;;;4.30;;
57111;SDS011;42992;49.084;19.300;2023-07-24T01:42:59;11.00;;;4.68;;
57111;SDS011;42992;49.084;19.300;2023-07-24T01:45:25;11.50;;;4.63;;
57111;SDS011;42992;49.084;19.300;2023-07-24T01:47:50;12.10;;;4.80;;
57111;SDS011;42992;49.084;19.300;2023-07-24T01:50:15;8.27;;;5.28;;
57111;SDS011;42992;49.084;19.300;2023-07-24T01:52:40;8.73;;;4.38;;
57111;SDS011;42992;49.084;19.300;2023-07-24T01:55:06;8.00;;;4.55;;
57111;SDS011;42992;49.084;19.300;2023-07-24T01:57:31;7.85;;;4.47;;
57111;SDS011;42992;49.084;19.300;2023-07-24T01:59:56;7.88;;;4.60;;
57111;SDS011;42992;49.084;19.300;2023-07-24T02:02:21;12.00;;;5.00;;
57111;SDS011;42992;49.084;19.300;2023-07-24T02:04:47;8.55;;;4.45;;
57111;SDS011;42992;49.084;19.300;2023-07-24T02:07:12;7.22;;;4.32;;
57111;SDS011;42992;49.084;19.300;2023-07-24T02:09:37;8.00;;;4.50;;
57111;SDS011;42992;49.084;19.300;2023-07-24T02:12:02;8.48;;;4.47;;
57111;SDS011;42992;49.084;19.300;2023-07-24T02:14:28;10.18;;;4.43;;
57111;SDS011;42992;49.084;19.300;2023-07-24T02:16:53;7.20;;;4.80;;
57111;SDS011;42992;49.084;19.300;2023-07-24T02:19:18;7.20;;;4.40;;
57111;SDS011;42992;49.084;19.300;2023-07-24T02:21:44;8.20;;;4.00;;
57111;SDS011;42992;49.084;19.300;2023-07-24T02:24:09;10.60;;;4.10;;
57111;SDS011;42992;49.084;19.300;2023-07-24T02:26:34;8.32;;;4.28;;
57111;SDS011;42992;49.084;19.300;2023-07-24T02:28:59;11.75;;;4.88;;
57111;SDS011;42992;49.084;19.300;2023-07-24T02:31:25;12.05;;;4.45;;
57111;SDS011;42992;49.084;19.300;2023-07-24T02:33:50;9.00;;;4.38;;
57111;SDS011;42992;49.084;19.300;2023-07-24T02:36:15;9.50;;;4.80;;
57111;SDS011;42992;49.084;19.300;2023-07-24T02:38:41;9.25;;;4.10;;
57111;SDS011;42992;49.084;19.300;2023-07-24T02:41:06;9.20;;;4.60;;
57111;SDS011;42992;49.084;19.300;2023-07-24T02:43:31;8.88;;;4.93;;
57111;SDS011;42992;49.084;19.300;2023-07-24T02:46:00;10.00;;;4.90;;
57111;SDS011;42992;49.084;19.300;2023-07-24T02:48:26;8.23;;;4.05;;
57111;SDS011;42992;49.084;19.300;2023-07-24T02:50:51;7.20;;;4.47;;
57111;SDS011;42992;49.084;19.300;2023-07-24T02:53:16;8.50;;;4.63;;
57111;SDS011;42992;49.084;19.300;2023-07-24T02:55:42;6.88;;;4.70;;
57111;SDS011;42992;49.084;19.300;2023-07-24T02:58:07;7.28;;;4.43;;
57111;SDS011;42992;49.084;19.300;2023-07-24T03:00:32;8.85;;;4.70;;
57111;SDS011;42992;49.084;19.300;2023-07-24T03:02:57;7.97;;;4.28;;
57111;SDS011;42992;49.084;19.300;2023-07-24T03:05:23;7.70;;;4.15;;
57111;SDS011;42992;49.084;19.300;2023-07-24T03:07:48;12.13;;;4.35;;
57111;SDS011;42992;49.084;19.300;2023-07-24T03:10:13;7.82;;;4.68;;
57111;SDS011;42992;49.084;19.300;2023-07-24T03:12:38;10.77;;;4.78;;
57111;SDS011;42992;49.084;19.300;2023-07-24T03:15:04;18.63;;;6.38;;
57111;SDS011;42992;49.084;19.300;2023-07-24T03:17:29;20.83;;;6.47;;
57111;SDS011;42992;49.084;19.300;2023-07-24T03:19:54;16.25;;;6.20;;
57111;SDS011;42992;49.084;19.300;2023-07-24T03:22:20;25.35;;;7.38;;
57111;SDS011;42992;49.084;19.300;2023-07-24T03:24:45;10.48;;;5.10;;
57111;SDS011;42992;49.084;19.300;2023-07-24T03:27:10;10.23;;;5.40;;
57111;SDS011;42992;49.084;19.300;2023-07-24T03:29:36;12.07;;;5.22;;
57111;SDS011;42992;49.084;19.300;2023-07-24T03:32:02;12.45;;;5.18;;
57111;SDS011;42992;49.084;19.300;2023-07-24T03:34:27;14.85;;;6.10;;
57111;SDS011;42992;49.084;19.300;2023-07-24T03:36:52;8.63;;;5.00;;
57111;SDS011;42992;49.084;19.300;2023-07-24T03:39:18;10.15;;;4.78;;
57111;SDS011;42992;49.084;19.300;2023-07-24T03:41:43;7.13;;;4.75;;
57111;SDS011;42992;49.084;19.300;2023-07-24T03:44:08;9.02;;;5.18;;
57111;SDS011;42992;49.084;19.300;2023-07-24T03:46:34;8.13;;;4.65;;
57111;SDS011;42992;49.084;19.300;2023-07-24T03:48:59;11.45;;;8.07;;
57111;SDS011;42992;49.084;19.300;2023-07-24T03:51:24;13.63;;;5.53;;
57111;SDS011;42992;49.084;19.300;2023-07-24T03:53:49;9.38;;;5.22;;
57111;SDS011;42992;49.084;19.300;2023-07-24T03:56:15;11.77;;;5.75;;
57111;SDS011;42992;49.084;19.300;2023-07-24T03:58:40;14.27;;;5.40;;
57111;SDS011;42992;49.084;19.300;2023-07-24T04:01:05;14.20;;;5.25;;
57111;SDS011;42992;49.084;19.300;2023-07-24T04:03:31;10.60;;;5.68;;
57111;SDS011;42992;49.084;19.300;2023-07-24T04:05:56;14.38;;;5.63;;
57111;SDS011;42992;49.084;19.300;2023-07-24T04:08:21;13.00;;;5.80;;
57111;SDS011;42992;49.084;19.300;2023-07-24T04:10:46;10.50;;;5.60;;
57111;SDS011;42992;49.084;19.300;2023-07-24T04:13:12;10.73;;;5.13;;
57111;SDS011;42992;49.084;19.300;2023-07-24T04:15:37;10.30;;;4.90;;
57111;SDS011;42992;49.084;19.300;2023-07-24T04:18:03;10.80;;;5.30;;
57111;SDS011;42992;49.084;19.300;2023-07-24T04:20:28;15.52;;;5.32;;
57111;SDS011;42992;49.084;19.300;2023-07-24T04:22:53;7.57;;;5.05;;
57111;SDS011;42992;49.084;19.300;2023-07-24T04:25:19;11.85;;;5.72;;
57111;SDS011;42992;49.084;19.300;2023-07-24T04:27:44;12.15;;;5.72;;
57111;SDS011;42992;49.084;19.300;2023-07-24T04:30:09;12.40;;;5.40;;
57111;SDS011;42992;49.084;19.300;2023-07-24T04:32:34;6.57;;;4.75;;
57111;SDS011;42992;49.084;19.300;2023-07-24T04:35:00;8.32;;;5.20;;
57111;SDS011;42992;49.084;19.300;2023-07-24T04:37:25;13.50;;;5.78;;
57111;SDS011;42992;49.084;19.300;2023-07-24T04:39:50;13.38;;;5.88;;
57111;SDS011;42992;49.084;19.300;2023-07-24T04:42:15;12.27;;;5.07;;
57111;SDS011;42992;49.084;19.300;2023-07-24T04:44:41;11.60;;;5.80;;
57111;SDS011;42992;49.084;19.300;2023-07-24T04:47:06;10.60;;;5.50;;
57111;SDS011;42992;49.084;19.300;2023-07-24T04:49:31;12.48;;;6.38;;
57111;SDS011;42992;49.084;19.300;2023-07-24T04:51:58;9.82;;;5.47;;
57111;SDS011;42992;49.084;19.300;2023-07-24T04:54:23;11.35;;;5.40;;
57111;SDS011;42992;49.084;19.300;2023-07-24T04:56:48;9.98;;;5.65;;
57111;SDS011;42992;49.084;19.300;2023-07-24T04:59:15;13.55;;;5.90;;
57111;SDS011;42992;49.084;19.300;2023-07-24T05:01:40;16.60;;;5.90;;
57111;SDS011;42992;49.084;19.300;2023-07-24T05:04:05;16.92;;;5.80;;
57111;SDS011;42992;49.084;19.300;2023-07-24T05:06:30;10.15;;;5.78;;
57111;SDS011;42992;49.084;19.300;2023-07-24T05:08:55;11.65;;;5.75;;
57111;SDS011;42992;49.084;19.300;2023-07-24T05:11:21;13.00;;;5.57;;
57111;SDS011;42992;49.084;19.300;2023-07-24T05:13:46;10.80;;;5.97;;
57111;SDS011;42992;49.084;19.300;2023-07-24T05:16:11;11.00;;;5.60;;
57111;SDS011;42992;49.084;19.300;2023-07-24T05:18:36;17.13;;;5.20;;
57111;SDS011;42992;49.084;19.300;2023-07-24T05:21:02;10.07;;;4.97;;
57111;SDS011;42992;49.084;19.300;2023-07-24T05:23:27;9.07;;;5.28;;
57111;SDS011;42992;49.084;19.300;2023-07-24T05:25:56;9.73;;;5.28;;
57111;SDS011;42992;49.084;19.300;2023-07-24T05:28:22;10.32;;;5.55;;
57111;SDS011;42992;49.084;19.300;2023-07-24T05:30:47;9.88;;;5.47;;
57111;SDS011;42992;49.084;19.300;2023-07-24T05:33:12;10.98;;;5.50;;
57111;SDS011;42992;49.084;19.300;2023-07-24T05:35:37;9.18;;;5.50;;
57111;SDS011;42992;49.084;19.300;2023-07-24T05:38:02;11.95;;;5.40;;
57111;SDS011;42992;49.084;19.300;2023-07-24T05:40:28;10.88;;;5.40;;
57111;SDS011;42992;49.084;19.300;2023-07-24T05:42:53;12.10;;;5.75;;
57111;SDS011;42992;49.084;19.300;2023-07-24T05:45:18;13.13;;;5.78;;
57111;SDS011;42992;49.084;19.300;2023-07-24T05:47:44;10.10;;;5.18;;
57111;SDS011;42992;49.084;19.300;2023-07-24T05:50:09;15.38;;;5.90;;
57111;SDS011;42992;49.084;19.300;2023-07-24T05:52:34;13.63;;;6.25;;
57111;SDS011;42992;49.084;19.300;2023-07-24T05:54:59;11.00;;;5.45;;
57111;SDS011;42992;49.084;19.300;2023-07-24T05:57:25;11.68;;;5.38;;
57111;SDS011;42992;49.084;19.300;2023-07-24T05:59:50;10.88;;;5.30;;
57111;SDS011;42992;49.084;19.300;2023-07-24T06:02:17;8.80;;;4.90;;
57111;SDS011;42992;49.084;19.300;2023-07-24T06:04:42;9.55;;;4.40;;
57111;SDS011;42992;49.084;19.300;2023-07-24T06:07:10;11.07;;;5.80;;
57111;SDS011;42992;49.084;19.300;2023-07-24T06:09:35;8.48;;;5.65;;
57111;SDS011;42992;49.084;19.300;2023-07-24T06:12:00;10.10;;;5.32;;
57111;SDS011;42992;49.084;19.300;2023-07-24T06:14:26;9.63;;;5.22;;
57111;SDS011;42992;49.084;19.300;2023-07-24T06:16:51;9.23;;;5.40;;
57111;SDS011;42992;49.084;19.300;2023-07-24T06:19:16;7.60;;;5.27;;
57111;SDS011;42992;49.084;19.300;2023-07-24T06:21:42;8.73;;;5.20;;
57111;SDS011;42992;49.084;19.300;2023-07-24T06:24:07;11.07;;;5.18;;
57111;SDS011;42992;49.084;19.300;2023-07-24T06:26:36;7.45;;;5.18;;
57111;SDS011;42992;49.084;19.300;2023-07-24T06:29:02;9.07;;;5.45;;
57111;SDS011;42992;49.084;19.300;2023-07-24T06:31:27;11.50;;;5.80;;
57111;SDS011;42992;49.084;19.300;2023-07-24T06:33:52;7.30;;;4.67;;
57111;SDS011;42992;49.084;19.300;2023-07-24T06:36:17;7.90;;;4.47;;
57111;SDS011;42992;49.084;19.300;2023-07-24T06:38:42;7.85;;;4.80;;
57111;SDS011;42992;49.084;19.300;2023-07-24T06:41:09;12.23;;;5.40;;
57111;SDS011;42992;49.084;19.300;2023-07-24T06:43:34;9.20;;;5.03;;
57111;SDS011;42992;49.084;19.300;2023-07-24T06:45:59;12.57;;;5.18;;
57111;SDS011;42992;49.084;19.300;2023-07-24T06:48:24;9.48;;;5.13;;
57111;SDS011;42992;49.084;19.300;2023-07-24T06:50:50;11.15;;;5.68;;
57111;SDS011;42992;49.084;19.300;2023-07-24T06:53:15;12.27;;;4.90;;
57111;SDS011;42992;49.084;19.300;2023-07-24T06:55:41;9.25;;;5.57;;
57111;SDS011;42992;49.084;19.300;2023-07-24T06:58:06;11.05;;;5.38;;
57111;SDS011;42992;49.084;19.300;2023-07-24T07:00:31;9.43;;;5.68;;
57111;SDS011;42992;49.084;19.300;2023-07-24T07:02:56;9.65;;;5.47;;
57111;SDS011;42992;49.084;19.300;2023-07-24T07:05:22;12.52;;;5.72;;
57111;SDS011;42992;49.084;19.300;2023-07-24T07:07:47;10.55;;;5.25;;
57111;SDS011;42992;49.084;19.300;2023-07-24T07:10:12;8.13;;;5.03;;
57111;SDS011;42992;49.084;19.300;2023-07-24T07:12:38;13.27;;;6.30;;
57111;SDS011;42992;49.084;19.300;2023-07-24T07:15:03;11.98;;;5.40;;
57111;SDS011;42992;49.084;19.300;2023-07-24T07:17:28;9.80;;;5.20;;
57111;SDS011;42992;49.084;19.300;2023-07-24T07:19:53;9.30;;;5.07;;
57111;SDS011;42992;49.084;19.300;2023-07-24T07:22:21;7.47;;;5.22;;
57111;SDS011;42992;49.084;19.300;2023-07-24T07:24:46;9.55;;;5.55;;
57111;SDS011;42992;49.084;19.300;2023-07-24T07:27:12;9.65;;;5.25;;
57111;SDS011;42992;49.084;19.300;2023-07-24T07:29:37;9.25;;;5.30;;
57111;SDS011;42992;49.084;19.300;2023-07-24T07:32:02;9.57;;;5.50;;
57111;SDS011;42992;49.084;19.300;2023-07-24T07:34:28;7.05;;;4.65;;
57111;SDS011;42992;49.084;19.300;2023-07-24T07:36:53;9.32;;;5.07;;
57111;SDS011;42992;49.084;19.300;2023-07-24T07:39:18;10.90;;;5.32;;
57111;SDS011;42992;49.084;19.300;2023-07-24T07:41:43;8.15;;;4.90;;
57111;SDS011;42992;49.084;19.300;2023-07-24T07:44:08;7.93;;;4.90;;
57111;SDS011;42992;49.084;19.300;2023-07-24T07:46:34;9.02;;;5.00;;
57111;SDS011;42992;49.084;19.300;2023-07-24T07:48:59;10.07;;;4.78;;
57111;SDS011;42992;49.084;19.300;2023-07-24T07:51:24;8.52;;;5.00;;
57111;SDS011;42992;49.084;19.300;2023-07-24T07:53:51;10.18;;;5.28;;
57111;SDS011;42992;49.084;19.300;2023-07-24T07:56:16;11.20;;;5.43;;
57111;SDS011;42992;49.084;19.300;2023-07-24T07:58:41;8.75;;;4.93;;
57111;SDS011;42992;49.084;19.300;2023-07-24T08:01:06;9.18;;;5.22;;
57111;SDS011;42992;49.084;19.300;2023-07-24T08:03:32;7.97;;;4.93;;
57111;SDS011;42992;49.084;19.300;2023-07-24T08:05:58;6.63;;;4.55;;
57111;SDS011;42992;49.084;19.300;2023-07-24T08:08:23;6.88;;;4.57;;
57111;SDS011;42992;49.084;19.300;2023-07-24T08:10:48;8.32;;;5.30;;
57111;SDS011;42992;49.084;19.300;2023-07-24T08:13:14;11.02;;;5.38;;
57111;SDS011;42992;49.084;19.300;2023-07-24T08:15:39;8.40;;;5.07;;
57111;SDS011;42992;49.084;19.300;2023-07-24T08:18:04;8.40;;;5.78;;
57111;SDS011;42992;49.084;19.300;2023-07-24T08:20:30;9.13;;;5.68;;
57111;SDS011;42992;49.084;19.300;2023-07-24T08:22:55;11.95;;;5.57;;
57111;SDS011;42992;49.084;19.300;2023-07-24T08:25:20;9.60;;;5.47;;
57111;SDS011;42992;49.084;19.300;2023-07-24T08:27:46;9.50;;;5.82;;
57111;SDS011;42992;49.084;19.300;2023-07-24T08:30:11;8.30;;;5.80;;
57111;SDS011;42992;49.084;19.300;2023-07-24T08:32:36;7.55;;;5.63;;
57111;SDS011;42992;49.084;19.300;2023-07-24T08:35:02;7.32;;;5.32;;
57111;SDS011;42992;49.084;19.300;2023-07-24T08:37:27;9.00;;;5.20;;
57111;SDS011;42992;49.084;19.300;2023-07-24T08:39:52;8.00;;;5.70;;
57111;SDS011;42992;49.084;19.300;2023-07-24T08:42:17;9.43;;;5.53;;
57111;SDS011;42992;49.084;19.300;2023-07-24T08:44:43;9.18;;;5.07;;
57111;SDS011;42992;49.084;19.300;2023-07-24T08:47:11;7.32;;;5.20;;
57111;SDS011;42992;49.084;19.300;2023-07-24T08:49:39;7.63;;;4.85;;
57111;SDS011;42992;49.084;19.300;2023-07-24T08:52:05;9.15;;;6.15;;
57111;SDS011;42992;49.084;19.300;2023-07-24T08:54:31;8.57;;;4.72;;
57111;SDS011;42992;49.084;19.300;2023-07-24T08:56:57;8.38;;;5.57;;
57111;SDS011;42992;49.084;19.300;2023-07-24T08:59:22;6.95;;;5.35;;
57111;SDS011;42992;49.084;19.300;2023-07-24T09:01:48;9.27;;;5.63;;
57111;SDS011;42992;49.084;19.300;2023-07-24T09:04:13;10.57;;;6.00;;
57111;SDS011;42992;49.084;19.300;2023-07-24T09:06:38;9.37;;;6.10;;
57111;SDS011;42992;49.084;19.300;2023-07-24T09:09:14;8.63;;;5.63;;
57111;SDS011;42992;49.084;19.300;2023-07-24T09:11:49;8.07;;;5.78;;
57111;SDS011;42992;49.084;19.300;2023-07-24T09:14:21;9.50;;;5.40;;
57111;SDS011;42992;49.084;19.300;2023-07-24T09:16:46;8.90;;;6.00;;
57111;SDS011;42992;49.084;19.300;2023-07-24T09:19:18;8.65;;;6.13;;
57111;SDS011;42992;49.084;19.300;2023-07-24T09:21:44;9.57;;;5.90;;
57111;SDS011;42992;49.084;19.300;2023-07-24T09:24:10;8.10;;;5.85;;
57111;SDS011;42992;49.084;19.300;2023-07-24T09:26:45;11.38;;;6.05;;
57111;SDS011;42992;49.084;19.300;2023-07-24T09:29:11;8.52;;;5.70;;
57111;SDS011;42992;49.084;19.300;2023-07-24T09:31:36;12.07;;;6.10;;
57111;SDS011;42992;49.084;19.300;2023-07-24T09:34:01;9.55;;;6.15;;
57111;SDS011;42992;49.084;19.300;2023-07-24T09:36:36;11.30;;;7.03;;
57111;SDS011;42992;49.084;19.300;2023-07-24T09:41:31;11.45;;;6.40;;
57111;SDS011;42992;49.084;19.300;2023-07-24T09:43:59;9.47;;;6.60;;
57111;SDS011;42992;49.084;19.300;2023-07-24T09:46:24;10.20;;;6.43;;
57111;SDS011;42992;49.084;19.300;2023-07-24T09:48:49;9.10;;;6.53;;
57111;SDS011;42992;49.084;19.300;2023-07-24T09:51:15;10.10;;;6.03;;
57111;SDS011;42992;49.084;19.300;2023-07-24T09:56:10;9.93;;;7.28;;
57111;SDS011;42992;49.084;19.300;2023-07-24T09:58:36;11.10;;;6.80;;
57111;SDS011;42992;49.084;19.300;2023-07-24T10:01:05;12.18;;;7.28;;
57111;SDS011;42992;49.084;19.300;2023-07-24T10:03:33;11.85;;;7.10;;
57111;SDS011;42992;49.084;19.300;2023-07-24T10:05:59;10.75;;;7.55;;
57111;SDS011;42992;49.084;19.300;2023-07-24T10:08:24;8.90;;;6.72;;
57111;SDS011;42992;49.084;19.300;2023-07-24T10:10:50;11.93;;;7.18;;
57111;SDS011;42992;49.084;19.300;2023-07-24T10:13:18;9.75;;;6.93;;
57111;SDS011;42992;49.084;19.300;2023-07-24T10:15:43;10.07;;;6.93;;
57111;SDS011;42992;49.084;19.300;2023-07-24T10:18:10;9.80;;;7.20;;
57111;SDS011;42992;49.084;19.300;2023-07-24T10:20:39;9.32;;;6.47;;
57111;SDS011;42992;49.084;19.300;2023-07-24T10:23:05;9.55;;;6.57;;
57111;SDS011;42992;49.084;19.300;2023-07-24T10:25:32;13.80;;;7.03;;
57111;SDS011;42992;49.084;19.300;2023-07-24T10:28:10;9.57;;;6.65;;
57111;SDS011;42992;49.084;19.300;2023-07-24T10:30:37;9.23;;;6.97;;
57111;SDS011;42992;49.084;19.300;2023-07-24T10:33:03;10.88;;;7.38;;
57111;SDS011;42992;49.084;19.300;2023-07-24T10:35:35;10.05;;;7.20;;
57111;SDS011;42992;49.084;19.300;2023-07-24T10:38:01;11.95;;;7.03;;
57111;SDS011;42992;49.084;19.300;2023-07-24T10:40:27;9.88;;;6.82;;
57111;SDS011;42992;49.084;19.300;2023-07-24T10:43:25;8.93;;;6.73;;
57111;SDS011;42992;49.084;19.300;2023-07-24T10:48:13;10.90;;;6.70;;
57111;SDS011;42992;49.084;19.300;2023-07-24T10:50:39;9.55;;;6.75;;
57111;SDS011;42992;49.084;19.300;2023-07-24T10:53:04;9.98;;;6.25;;
57111;SDS011;42992;49.084;19.300;2023-07-24T10:55:29;11.43;;;6.53;;
57111;SDS011;42992;49.084;19.300;2023-07-24T10:57:54;8.73;;;6.30;;
57111;SDS011;42992;49.084;19.300;2023-07-24T11:00:20;8.10;;;6.00;;
57111;SDS011;42992;49.084;19.300;2023-07-24T11:02:45;18.20;;;7.22;;
57111;SDS011;42992;49.084;19.300;2023-07-24T11:05:10;10.03;;;6.60;;
57111;SDS011;42992;49.084;19.300;2023-07-24T11:07:37;10.93;;;7.32;;
57111;SDS011;42992;49.084;19.300;2023-07-24T11:10:02;9.80;;;6.43;;
57111;SDS011;42992;49.084;19.300;2023-07-24T11:12:27;8.07;;;6.25;;
57111;SDS011;42992;49.084;19.300;2023-07-24T11:14:55;10.88;;;7.05;;
57111;SDS011;42992;49.084;19.300;2023-07-24T11:17:21;8.95;;;6.80;;
57111;SDS011;42992;49.084;19.300;2023-07-24T11:19:46;9.05;;;6.93;;
57111;SDS011;42992;49.084;19.300;2023-07-24T11:22:12;10.33;;;6.73;;
57111;SDS011;42992;49.084;19.300;2023-07-24T11:24:45;12.35;;;6.70;;
57111;SDS011;42992;49.084;19.300;2023-07-24T11:27:14;8.77;;;7.07;;
57111;SDS011;42992;49.084;19.300;2023-07-24T11:29:47;9.90;;;6.80;;
57111;SDS011;42992;49.084;19.300;2023-07-24T11:32:13;9.85;;;6.05;;
57111;SDS011;42992;49.084;19.300;2023-07-24T11:34:38;8.83;;;6.63;;
57111;SDS011;42992;49.084;19.300;2023-07-24T11:37:03;10.50;;;6.53;;
57111;SDS011;42992;49.084;19.300;2023-07-24T11:39:29;10.32;;;6.15;;
57111;SDS011;42992;49.084;19.300;2023-07-24T11:41:55;10.35;;;7.13;;
57111;SDS011;42992;49.084;19.300;2023-07-24T11:44:27;10.65;;;7.15;;
57111;SDS011;42992;49.084;19.300;2023-07-24T11:46:59;10.75;;;6.35;;
57111;SDS011;42992;49.084;19.300;2023-07-24T11:49:25;11.13;;;6.80;;
57111;SDS011;42992;49.084;19.300;2023-07-24T11:51:50;9.63;;;6.90;;
57111;SDS011;42992;49.084;19.300;2023-07-24T11:54:16;8.57;;;6.88;;
57111;SDS011;42992;49.084;19.300;2023-07-24T11:56:42;9.18;;;6.53;;
57111;SDS011;42992;49.084;19.300;2023-07-24T11:59:14;10.13;;;7.47;;
57111;SDS011;42992;49.084;19.300;2023-07-24T12:01:39;9.23;;;7.03;;
57111;SDS011;42992;49.084;19.300;2023-07-24T12:04:05;9.77;;;6.55;;
57111;SDS011;42992;49.084;19.300;2023-07-24T12:06:30;11.00;;;6.85;;
57111;SDS011;42992;49.084;19.300;2023-07-24T12:09:01;9.35;;;7.00;;
57111;SDS011;42992;49.084;19.300;2023-07-24T12:11:27;10.48;;;6.78;;
57111;SDS011;42992;49.084;19.300;2023-07-24T12:13:52;10.00;;;6.55;;
57111;SDS011;42992;49.084;19.300;2023-07-24T12:16:18;9.38;;;7.15;;
57111;SDS011;42992;49.084;19.300;2023-07-24T12:18:44;9.95;;;6.85;;
57111;SDS011;42992;49.084;19.300;2023-07-24T12:21:09;11.07;;;7.13;;
57111;SDS011;42992;49.084;19.300;2023-07-24T12:23:34;9.88;;;6.97;;
57111;SDS011;42992;49.084;19.300;2023-07-24T12:25:59;10.70;;;6.50;;
57111;SDS011;42992;49.084;19.300;2023-07-24T12:28:25;9.37;;;6.87;;
57111;SDS011;42992;49.084;19.300;2023-07-24T12:30:50;10.40;;;5.87;;
57111;SDS011;42992;49.084;19.300;2023-07-24T12:33:15;9.88;;;6.50;;
57111;SDS011;42992;49.084;19.300;2023-07-24T12:35:41;9.70;;;6.40;;
57111;SDS011;42992;49.084;19.300;2023-07-24T12:38:06;12.60;;;6.60;;
57111;SDS011;42992;49.084;19.300;2023-07-24T12:40:32;8.43;;;6.80;;
57111;SDS011;42992;49.084;19.300;2023-07-24T12:42:57;9.10;;;7.07;;
57111;SDS011;42992;49.084;19.300;2023-07-24T12:45:22;10.85;;;6.47;;
57111;SDS011;42992;49.084;19.300;2023-07-24T12:47:47;10.00;;;6.67;;
57111;SDS011;42992;49.084;19.300;2023-07-24T12:50:13;9.40;;;6.70;;
57111;SDS011;42992;49.084;19.300;2023-07-24T12:52:38;10.70;;;6.47;;
57111;SDS011;42992;49.084;19.300;2023-07-24T12:55:03;13.77;;;7.18;;
57111;SDS011;42992;49.084;19.300;2023-07-24T12:57:30;10.05;;;6.60;;
57111;SDS011;42992;49.084;19.300;2023-07-24T12:59:55;9.85;;;6.85;;
57111;SDS011;42992;49.084;19.300;2023-07-24T13:02:21;10.10;;;7.03;;
57111;SDS011;42992;49.084;19.300;2023-07-24T13:04:46;8.73;;;6.80;;
57111;SDS011;42992;49.084;19.300;2023-07-24T13:07:11;9.57;;;7.23;;
57111;SDS011;42992;49.084;19.300;2023-07-24T13:09:36;12.20;;;8.13;;
57111;SDS011;42992;49.084;19.300;2023-07-24T13:12:01;11.38;;;7.50;;
57111;SDS011;42992;49.084;19.300;2023-07-24T13:14:27;9.75;;;7.45;;
57111;SDS011;42992;49.084;19.300;2023-07-24T13:16:52;10.50;;;7.60;;
57111;SDS011;42992;49.084;19.300;2023-07-24T13:19:17;10.25;;;7.75;;
57111;SDS011;42992;49.084;19.300;2023-07-24T13:21:42;10.33;;;8.07;;
57111;SDS011;42992;49.084;19.300;2023-07-24T13:24:08;8.95;;;7.20;;
57111;SDS011;42992;49.084;19.300;2023-07-24T13:26:33;10.50;;;7.47;;
57111;SDS011;42992;49.084;19.300;2023-07-24T13:28:58;10.60;;;7.72;;
57111;SDS011;42992;49.084;19.300;2023-07-24T13:31:24;9.40;;;7.60;;
57111;SDS011;42992;49.084;19.300;2023-07-24T13:33:49;10.00;;;7.70;;
57111;SDS011;42992;49.084;19.300;2023-07-24T13:36:14;10.98;;;8.65;;
57111;SDS011;42992;49.084;19.300;2023-07-24T13:38:40;11.90;;;8.50;;
57111;SDS011;42992;49.084;19.300;2023-07-24T13:41:05;12.82;;;9.10;;
57111;SDS011;42992;49.084;19.300;2023-07-24T13:43:31;12.05;;;8.35;;
57111;SDS011;42992;49.084;19.300;2023-07-24T13:45:56;11.70;;;8.55;;
57111;SDS011;42992;49.084;19.300;2023-07-24T13:48:22;10.35;;;7.72;;
57111;SDS011;42992;49.084;19.300;2023-07-24T13:50:47;11.60;;;8.48;;
57111;SDS011;42992;49.084;19.300;2023-07-24T13:53:12;11.25;;;8.40;;
57111;SDS011;42992;49.084;19.300;2023-07-24T13:55:38;13.27;;;8.37;;
57111;SDS011;42992;49.084;19.300;2023-07-24T13:58:03;9.90;;;8.00;;
57111;SDS011;42992;49.084;19.300;2023-07-24T14:00:28;10.75;;;8.30;;
57111;SDS011;42992;49.084;19.300;2023-07-24T14:02:53;11.38;;;8.48;;
57111;SDS011;42992;49.084;19.300;2023-07-24T14:05:19;11.30;;;8.33;;
57111;SDS011;42992;49.084;19.300;2023-07-24T14:07:44;10.57;;;7.88;;
57111;SDS011;42992;49.084;19.300;2023-07-24T14:10:09;11.23;;;8.20;;
57111;SDS011;42992;49.084;19.300;2023-07-24T14:12:35;10.05;;;7.95;;
57111;SDS011;42992;49.084;19.300;2023-07-24T14:15:00;11.27;;;7.90;;
57111;SDS011;42992;49.084;19.300;2023-07-24T14:17:25;10.68;;;7.95;;
57111;SDS011;42992;49.084;19.300;2023-07-24T14:19:51;10.75;;;8.10;;
57111;SDS011;42992;49.084;19.300;2023-07-24T14:22:16;14.30;;;8.40;;
57111;SDS011;42992;49.084;19.300;2023-07-24T14:24:41;10.23;;;7.97;;
57111;SDS011;42992;49.084;19.300;2023-07-24T14:27:06;10.67;;;8.30;;
57111;SDS011;42992;49.084;19.300;2023-07-24T14:29:31;10.45;;;8.13;;